Archer, Wyoming
Current Conditions -  °F | °C
As of 5:53 AM on Friday 31 Oct 2014 (Local Time) from KCYS Reporting Station
Clear Clear  
Wind Chill: -5°   Ceiling: Unl
Heat Index: -1°   Visibility: 10mi
Dew Point: -3°   Wind: 9mph
Humidity: 82%   Direction: 180°S
Pressure: 30.34"   Gusts: NA
Location:  41.4091°N, 104.861°W
Report Text: KCYS 311153Z 18008KT 10SM CLR M01/M03 A3034 RMK AO2 SLP264 T10061033 10022 21006 56012
Loading
Personal Weather Stations






























Interactive Weather Map
Tropical Storm Tracking
New forecast layout! Learn more

10-Day Weather Forecast

Advertisements
Track Severe Weather on mobile